Time;durP1;ratioP1;P1;durP2;ratioP2;P2;SDS_P1;SDS_P2;PMS_P1;PMS_P2;Temp;Humidity;BMP_temperature;BMP_pressure;BME280_temperature;BME280_humidity;BME280_pressure;Samples;Min_cycle;Max_cycle;Signal;HPM_P1;HPM_P2
2022/12/23 00:01:13;;;;;;;6.35;2.10;;;;;;;7.03;100.00;95521.13;5072158;28;20040;-79
2022/12/23 00:03:40;;;;;;;6.53;1.45;;;;;;;7.00;100.00;95511.75;5072773;28;20055;-78
2022/12/23 00:06:09;;;;;;;5.38;1.25;;;;;;;6.99;100.00;95510.13;5072565;28;20044;-79
2022/12/23 00:08:36;;;;;;;7.28;1.50;;;;;;;6.99;100.00;95504.72;5054788;28;20040;-79
2022/12/23 00:11:10;;;;;;;6.72;1.48;;;;;;;6.98;100.00;95494.22;5071929;28;20094;-78
2022/12/23 00:16:20;;;;;;;6.25;1.55;;;;;;;6.90;100.00;95479.56;5072925;28;20572;-80
2022/12/23 00:18:47;;;;;;;5.00;1.25;;;;;;;6.88;100.00;95476.34;5073208;28;20049;-80
2022/12/23 00:21:16;;;;;;;7.78;1.63;;;;;;;6.87;100.00;95477.47;5073073;28;20048;-79
2022/12/23 00:23:44;;;;;;;4.90;1.40;;;;;;;6.84;100.00;95480.81;5073524;28;20526;-80
2022/12/23 00:26:17;;;;;;;10.98;1.25;;;;;;;6.85;100.00;95468.88;5072133;28;20094;-78
2022/12/23 00:28:44;;;;;;;8.38;1.20;;;;;;;6.85;100.00;95471.59;5072259;28;20045;-79
2022/12/23 00:31:12;;;;;;;5.05;1.20;;;;;;;6.80;100.00;95469.03;5073142;28;20044;-79
2022/12/23 00:33:40;;;;;;;4.00;1.23;;;;;;;6.83;100.00;95457.56;5073756;28;20063;-79
2022/12/23 00:36:15;;;;;;;5.55;1.48;;;;;;;6.75;100.00;95444.81;5074178;28;20117;-80
2022/12/23 00:44:10;;;;;;;3.47;1.20;;;;;;;6.79;100.00;95429.56;5068525;28;20086;-80
2022/12/23 00:46:37;;;;;;;7.03;1.40;;;;;;;6.71;100.00;95433.81;5073090;28;20044;-80
2022/12/23 00:51:47;;;;;;;6.95;1.50;;;;;;;6.70;100.00;95431.44;5074394;28;20055;-79
2022/12/23 00:54:14;;;;;;;3.17;1.17;;;;;;;6.73;100.00;95426.22;5073426;28;20044;-79
2022/12/23 00:56:42;;;;;;;6.93;1.35;;;;;;;6.74;100.00;95432.41;5074056;28;20059;-78
2022/12/23 00:59:09;;;;;;;6.28;1.35;;;;;;;6.73;100.00;95425.38;5073276;28;20052;-78
2022/12/23 01:07:05;;;;;;;6.88;1.50;;;;;;;6.66;100.00;95416.94;5061516;28;20051;-78
2022/12/23 01:09:32;;;;;;;4.18;1.15;;;;;;;6.67;100.00;95413.13;5070409;28;20041;-78
2022/12/23 01:12:00;;;;;;;5.45;1.10;;;;;;;6.70;100.00;95409.81;5071492;28;20037;-78
2022/12/23 01:14:27;;;;;;;4.55;0.95;;;;;;;6.62;100.00;95397.03;5072472;28;20056;-79
2022/12/23 01:16:54;;;;;;;6.05;1.23;;;;;;;6.60;100.00;95393.88;5064303;28;20049;-78
2022/12/23 01:19:21;;;;;;;2.95;0.93;;;;;;;6.79;100.00;95397.09;5072422;28;20040;-79
2022/12/23 01:21:47;;;;;;;3.90;1.00;;;;;;;6.69;100.00;95398.19;5063300;28;20086;-78
2022/12/23 01:24:14;;;;;;;4.95;1.00;;;;;;;6.68;100.00;95401.19;5071576;28;20039;-79
2022/12/23 01:26:40;;;;;;;3.38;1.00;;;;;;;6.62;100.00;95397.84;5072745;28;20060;-79
2022/12/23 01:29:08;;;;;;;5.43;1.30;;;;;;;6.64;100.00;95384.03;5072616;28;20052;-78
2022/12/23 01:31:35;;;;;;;4.80;1.15;;;;;;;6.58;100.00;95404.19;5073451;28;20048;-79
2022/12/23 01:34:01;;;;;;;3.58;1.10;;;;;;;6.60;100.00;95401.97;5071698;28;20044;-77
2022/12/23 01:36:27;;;;;;;3.70;0.90;;;;;;;6.57;100.00;95394.50;5072545;28;20040;-79
2022/12/23 01:38:56;;;;;;;4.75;0.98;;;;;;;6.64;100.00;95395.63;5073157;28;20403;-79
2022/12/23 01:44:46;;;;;;;2.53;1.35;;;;;;;6.57;100.00;95372.84;5067165;28;20048;-78
2022/12/23 01:47:19;;;;;;;4.38;1.00;;;;;;;6.63;100.00;95377.81;5066545;28;20041;-77
2022/12/23 01:49:48;;;;;;;1.88;0.70;;;;;;;6.60;100.00;95369.53;5072202;28;20045;-78
2022/12/23 01:52:15;;;;;;;2.10;0.70;;;;;;;6.52;100.00;95377.31;5071180;28;20036;-77
2022/12/23 01:54:43;;;;;;;1.88;0.90;;;;;;;6.52;100.00;95379.19;5071870;28;20047;-78
2022/12/23 01:57:10;;;;;;;1.80;0.70;;;;;;;6.49;100.00;95377.94;5071196;28;20048;-78
2022/12/23 02:05:08;;;;;;;1.95;0.88;;;;;;;6.60;100.00;95377.63;5065808;28;20579;-78
2022/12/23 02:10:25;;;;;;;3.58;0.82;;;;;;;6.59;100.00;95365.25;5069914;28;20055;-78
2022/12/23 02:12:58;;;;;;;4.43;0.70;;;;;;;6.46;100.00;95378.56;5075174;28;20037;-79
2022/12/23 02:18:43;;;;;;;2.03;0.70;;;;;;;6.52;100.00;95393.56;5076447;28;19966;-78
2022/12/23 02:21:19;;;;;;;;;;;;;;;6.54;100.00;95385.91;5069394;28;20037;-77
2022/12/23 02:24:18;;;;;;;2.00;0.63;;;;;;;6.49;100.00;95382.56;5074460;28;19960;-79
2022/12/23 02:27:06;;;;;;;4.55;0.90;;;;;;;6.48;100.00;95389.88;5075386;28;20045;-78
2022/12/23 02:30:18;;;;;;;1.55;0.50;;;;;;;6.51;100.00;95396.56;5075098;28;20207;-78
2022/12/23 02:33:20;;;;;;;2.88;0.80;;;;;;;6.51;100.00;95391.94;5073813;28;20048;-78
2022/12/23 02:36:00;;;;;;;4.55;0.90;;;;;;;6.53;100.00;95389.72;5073625;28;20509;-78
2022/12/23 02:38:31;;;;;;;2.97;0.70;;;;;;;6.56;100.00;95398.31;5073369;28;20048;-78
2022/12/23 02:41:09;;;;;;;3.47;0.70;;;;;;;6.50;100.00;95389.56;5066759;28;20044;-77
2022/12/23 02:43:46;;;;;;;2.90;0.68;;;;;;;6.42;100.00;95399.25;5073613;28;20048;-77
2022/12/23 02:46:17;;;;;;;2.03;0.80;;;;;;;6.47;100.00;95385.59;5073929;28;20052;-77
2022/12/23 02:48:53;;;;;;;1.92;0.93;;;;;;;6.56;100.00;95393.69;5073890;28;20048;-78
2022/12/23 02:51:24;;;;;;;2.53;0.70;;;;;;;6.45;100.00;95398.59;5074291;28;20044;-77
2022/12/23 02:53:54;;;;;;;2.88;0.88;;;;;;;6.44;100.00;95391.63;5074454;28;20517;-77
2022/12/23 02:56:25;;;;;;;4.20;1.60;;;;;;;6.39;100.00;95399.88;5073598;28;20040;-77
2022/12/23 02:58:56;;;;;;;2.42;0.80;;;;;;;6.41;100.00;95396.84;5073902;28;20044;-78
2022/12/23 03:01:24;;;;;;;2.58;0.70;;;;;;;6.37;100.00;95401.28;5075937;28;20048;-77
2022/12/23 03:03:52;;;;;;;3.42;0.90;;;;;;;6.34;100.00;95408.13;5078647;28;20044;-78
2022/12/23 03:06:23;;;;;;;3.70;1.00;;;;;;;6.38;100.00;95402.91;5076545;28;20047;-78
2022/12/23 03:08:54;;;;;;;2.75;0.70;;;;;;;6.51;100.00;95396.56;5074561;28;20044;-78
2022/12/23 03:11:21;;;;;;;3.83;0.93;;;;;;;6.42;100.00;95399.25;5074233;28;20041;-78
2022/12/23 03:14:04;;;;;;;2.97;1.20;;;;;;;6.56;100.00;95388.28;5074171;28;20040;-78
2022/12/23 03:16:42;;;;;;;4.13;0.90;;;;;;;6.59;100.00;95398.50;5072520;28;20044;-77
2022/12/23 03:19:20;;;;;;;5.50;1.58;;;;;;;6.56;100.00;95392.91;5074129;28;20044;-77
2022/12/23 03:21:54;;;;;;;2.83;1.10;;;;;;;6.65;100.00;95396.44;5073514;28;20041;-78
2022/12/23 03:24:29;;;;;;;3.70;1.13;;;;;;;6.67;100.00;95396.91;5073893;28;20599;-77
2022/12/23 03:27:05;;;;;;;2.25;0.82;;;;;;;6.58;100.00;95396.06;5074578;28;20081;-77
2022/12/23 03:29:39;;;;;;;4.25;1.10;;;;;;;6.59;100.00;95397.69;5073264;28;20048;-77
2022/12/23 03:32:08;;;;;;;3.38;1.00;;;;;;;6.61;100.00;95392.75;5073355;28;20056;-77
2022/12/23 03:34:39;;;;;;;2.50;1.05;;;;;;;6.60;100.00;95394.66;5074020;28;20064;-77
2022/12/23 03:37:09;;;;;;;5.05;1.00;;;;;;;6.52;100.00;95393.56;5073783;28;20048;-77
2022/12/23 03:39:45;;;;;;;2.90;1.02;;;;;;;6.51;100.00;95408.16;5072740;28;20052;-77
2022/12/23 03:42:18;;;;;;;3.47;0.95;;;;;;;6.53;100.00;95399.75;5073195;28;20063;-77
2022/12/23 03:44:49;;;;;;;1.58;0.63;;;;;;;6.54;100.00;95404.84;5072974;28;20053;-77
2022/12/23 03:47:20;;;;;;;3.35;0.80;;;;;;;6.68;100.00;95407.44;5072374;28;20048;-77
2022/12/23 03:49:53;;;;;;;3.25;1.20;;;;;;;6.66;100.00;95403.44;5072777;28;20508;-77
2022/12/23 03:52:22;;;;;;;2.25;1.00;;;;;;;6.73;100.00;95404.56;5072744;28;20055;-77
2022/12/23 03:54:53;;;;;;;4.05;0.90;;;;;;;6.84;100.00;95405.06;5073599;28;20105;-78
2022/12/23 03:57:22;;;;;;;7.00;2.70;;;;;;;6.89;100.00;95413.03;5072725;28;20041;-78
2022/12/23 03:59:50;;;;;;;2.40;0.70;;;;;;;7.01;100.00;95415.88;5073396;28;20057;-77
2022/12/23 04:02:23;;;;;;;2.42;0.88;;;;;;;7.12;100.00;95415.56;5072460;28;20135;-78
2022/12/23 04:05:08;;;;;;;1.27;0.80;;;;;;;7.27;100.00;95410.47;5073551;28;20041;-78
2022/12/23 04:07:40;;;;;;;1.92;1.23;;;;;;;7.50;100.00;95404.84;5073140;28;20480;-77
2022/12/23 04:10:09;;;;;;;2.90;1.08;;;;;;;7.62;100.00;95404.19;5072638;28;20051;-77
2022/12/23 04:12:36;;;;;;;2.05;1.20;;;;;;;7.73;100.00;95400.06;5072876;28;20044;-78
2022/12/23 04:15:03;;;;;;;2.97;1.00;;;;;;;7.86;100.00;95396.34;5072735;28;20052;-78
2022/12/23 04:17:29;;;;;;;1.70;1.10;;;;;;;7.99;100.00;95395.34;5072988;28;20048;-78
2022/12/23 04:19:57;;;;;;;22.67;11.60;;;;;;;8.10;100.00;95404.72;5073297;28;20045;-79
2022/12/23 04:22:24;;;;;;;23.38;9.85;;;;;;;8.27;100.00;95405.75;5072104;28;20044;-78
2022/12/23 04:24:50;;;;;;;3.13;1.00;;;;;;;8.34;100.00;95403.31;5073789;28;20492;-78
2022/12/23 04:27:17;;;;;;;2.55;0.90;;;;;;;8.44;100.00;95407.63;5072830;28;20044;-78
2022/12/23 04:29:44;;;;;;;2.00;1.15;;;;;;;8.52;100.00;95407.56;5074402;28;20048;-78
2022/12/23 04:32:10;;;;;;;1.58;0.63;;;;;;;8.62;100.00;95412.63;5074025;28;20123;-77
2022/12/23 04:34:37;;;;;;;1.63;0.90;;;;;;;8.65;100.00;95404.94;5074537;28;20174;-78
2022/12/23 04:37:05;;;;;;;3.65;1.20;;;;;;;8.68;100.00;95420.59;5072893;28;20239;-78
2022/12/23 04:39:31;;;;;;;3.70;0.90;;;;;;;8.72;100.00;95416.06;5072224;28;20047;-78
2022/12/23 04:41:58;;;;;;;1.95;0.80;;;;;;;8.75;100.00;95415.41;5073354;28;20055;-78
2022/12/23 04:44:24;;;;;;;1.80;0.70;;;;;;;8.75;100.00;95418.13;5072104;28;20495;-76
2022/12/23 04:46:51;;;;;;;0.98;0.70;;;;;;;8.78;100.00;95420.22;5072333;28;20360;-77
2022/12/23 04:49:17;;;;;;;2.03;0.57;;;;;;;8.76;100.00;95422.44;5071898;28;20048;-77
2022/12/23 04:51:44;;;;;;;1.90;1.10;;;;;;;8.78;100.00;95420.22;5071395;28;20044;-77
2022/12/23 04:54:13;;;;;;;0.98;0.70;;;;;;;8.78;100.00;95425.63;5071670;28;20052;-78
2022/12/23 04:56:40;;;;;;;0.95;0.45;;;;;;;8.72;100.00;95424.22;5072365;28;20052;-78
2022/12/23 04:59:06;;;;;;;0.82;0.47;;;;;;;8.71;100.00;95422.63;5072159;28;20086;-78
2022/12/23 05:01:33;;;;;;;0.52;0.50;;;;;;;8.71;100.00;95428.06;5072940;28;20044;-78
2022/12/23 05:03:59;;;;;;;1.17;0.40;;;;;;;8.70;100.00;95437.31;5073010;28;20052;-78
2022/12/23 05:06:26;;;;;;;2.20;0.40;;;;;;;8.67;100.00;95436.06;5073987;28;20040;-77
2022/12/23 05:08:52;;;;;;;0.30;0.30;;;;;;;8.71;100.00;95449.75;5073213;28;20522;-77
2022/12/23 05:11:20;;;;;;;3.45;0.60;;;;;;;8.69;100.00;95449.31;5076272;28;20052;-77
2022/12/23 05:13:47;;;;;;;0.77;0.22;;;;;;;8.71;100.00;95438.91;5075492;28;20044;-76
2022/12/23 05:16:13;;;;;;;0.90;0.43;;;;;;;8.69;100.00;95449.31;5075567;28;20037;-78
2022/12/23 05:18:40;;;;;;;2.35;0.50;;;;;;;8.68;100.00;95439.59;5076432;28;20049;-78
2022/12/23 05:21:06;;;;;;;2.25;0.60;;;;;;;8.62;100.00;95437.06;5079159;28;20480;-78
2022/12/23 05:23:33;;;;;;;0.80;0.60;;;;;;;8.55;100.00;95450.31;5074634;28;20045;-78
2022/12/23 05:26:02;;;;;;;2.45;0.60;;;;;;;8.58;100.00;95455.09;5074265;28;20041;-77
2022/12/23 05:28:30;;;;;;;1.80;0.70;;;;;;;8.55;100.00;95458.47;5072756;28;20041;-77
2022/12/23 05:31:00;;;;;;;0.85;0.40;;;;;;;8.63;100.00;95448.69;5071830;28;20656;-79
2022/12/23 05:33:27;;;;;;;1.02;0.30;;;;;;;8.60;100.00;95460.19;5070849;28;20052;-76
2022/12/23 05:35:53;;;;;;;2.33;0.65;;;;;;;8.59;100.00;95458.63;5065035;28;20047;-78
2022/12/23 05:38:20;;;;;;;1.02;0.52;;;;;;;8.55;100.00;95455.75;5071437;28;20572;-77
2022/12/23 05:40:47;;;;;;;1.42;0.90;;;;;;;8.54;100.00;95462.31;5074141;28;20519;-78
2022/12/23 05:43:14;;;;;;;1.60;0.82;;;;;;;8.53;100.00;95474.28;5076643;28;20393;-78
2022/12/23 05:45:41;;;;;;;1.15;0.70;;;;;;;8.60;100.00;95473.75;5076649;28;20503;-77
2022/12/23 05:48:11;;;;;;;0.80;0.70;;;;;;;8.65;100.00;95481.72;5075512;28;20488;-78
2022/12/23 05:50:37;;;;;;;0.65;0.60;;;;;;;8.69;100.00;95482.66;5075357;28;20048;-77
2022/12/23 05:53:04;;;;;;;0.60;0.40;;;;;;;8.71;100.00;95490.47;5075167;28;20041;-78
2022/12/23 05:55:31;;;;;;;0.93;0.70;;;;;;;8.71;100.00;95490.47;5075340;28;20056;-77
2022/12/23 05:57:57;;;;;;;1.02;0.50;;;;;;;8.67;100.00;95489.56;5075697;28;20061;-77
2022/12/23 06:00:24;;;;;;;0.50;0.50;;;;;;;8.61;100.00;95487.03;5075323;28;20048;-78
2022/12/23 06:02:52;;;;;;;3.05;0.80;;;;;;;8.61;100.00;95480.78;5075715;28;20036;-78
2022/12/23 06:05:19;;;;;;;1.90;0.60;;;;;;;8.56;100.00;95484.50;5075974;28;20037;-77
2022/12/23 06:07:45;;;;;;;1.40;0.35;;;;;;;8.56;100.00;95492.63;5076338;28;20051;-78
2022/12/23 06:10:12;;;;;;;1.02;0.50;;;;;;;8.54;100.00;95492.16;5076812;28;20041;-79
2022/12/23 06:12:38;;;;;;;1.30;0.40;;;;;;;8.57;100.00;95501.56;5076569;28;20048;-79
2022/12/23 06:15:06;;;;;;;1.70;0.60;;;;;;;8.57;100.00;95504.28;5076890;28;20407;-78
2022/12/23 06:17:35;;;;;;;1.08;0.40;;;;;;;8.57;100.00;95505.09;5059461;28;20040;-80
2022/12/23 06:20:03;;;;;;;2.17;0.60;;;;;;;8.55;100.00;95510.03;5078423;28;20463;-78
2022/12/23 06:22:30;;;;;;;2.20;0.70;;;;;;;8.56;100.00;95505.38;5076872;28;20806;-79
2022/12/23 06:24:57;;;;;;;1.38;0.90;;;;;;;8.56;100.00;95511.63;5077702;28;20044;-78
2022/12/23 06:27:23;;;;;;;1.92;0.55;;;;;;;8.56;100.00;95522.50;5077083;28;20052;-77
2022/12/23 06:29:50;;;;;;;1.80;1.10;;;;;;;8.56;100.00;95527.09;5077788;28;20037;-79
2022/12/23 06:32:16;;;;;;;1.67;0.90;;;;;;;8.53;100.00;95533.97;5076726;28;20068;-77
2022/12/23 06:34:43;;;;;;;3.25;1.00;;;;;;;8.50;100.00;95545.47;5076246;28;20052;-79
2022/12/23 06:37:11;;;;;;;2.88;0.95;;;;;;;8.53;100.00;95549.47;5075934;28;20434;-79
2022/12/23 06:39:37;;;;;;;1.17;0.80;;;;;;;8.58;100.00;95552.00;5076440;28;20036;-78
2022/12/23 06:42:04;;;;;;;1.70;1.00;;;;;;;8.56;100.00;95541.47;5075124;28;20048;-78
2022/12/23 06:44:30;;;;;;;1.35;0.98;;;;;;;8.62;100.00;95552.97;5075451;28;20044;-78
2022/12/23 06:46:57;;;;;;;1.48;0.75;;;;;;;8.59;100.00;95567.94;5074836;28;20451;-78
2022/12/23 06:49:23;;;;;;;0.88;0.60;;;;;;;8.65;100.00;95567.78;5075260;28;20036;-79
2022/12/23 06:51:50;;;;;;;2.88;0.80;;;;;;;8.68;100.00;95564.44;5075517;28;20044;-78
2022/12/23 06:54:18;;;;;;;3.70;0.80;;;;;;;8.69;100.00;95561.38;5075322;28;20044;-78
2022/12/23 06:56:48;;;;;;;1.95;1.00;;;;;;;8.70;100.00;95557.53;5075584;28;20128;-78
2022/12/23 06:59:15;;;;;;;4.30;0.80;;;;;;;8.73;100.00;95564.25;5075424;28;20045;-78
2022/12/23 07:01:41;;;;;;;2.83;0.88;;;;;;;8.71;100.00;95566.47;5075184;28;20044;-77
2022/12/23 07:04:09;;;;;;;2.33;0.70;;;;;;;8.73;100.00;95559.63;5074481;28;20123;-77
2022/12/23 07:06:35;;;;;;;1.90;1.02;;;;;;;8.73;100.00;95570.47;5074213;28;20044;-78
2022/12/23 07:09:02;;;;;;;1.33;0.60;;;;;;;8.73;100.00;95569.69;5074824;28;20046;-77
2022/12/23 07:11:29;;;;;;;1.50;0.77;;;;;;;8.72;100.00;95573.50;5074584;28;20115;-78
2022/12/23 07:13:58;;;;;;;0.95;0.65;;;;;;;8.69;100.00;95580.38;5073797;28;20041;-78
2022/12/23 07:16:24;;;;;;;1.63;0.60;;;;;;;8.70;100.00;95576.53;5074102;28;20040;-77
2022/12/23 07:18:51;;;;;;;2.03;1.30;;;;;;;8.69;100.00;95585.00;5073509;28;20044;-78
2022/12/23 07:21:17;;;;;;;1.35;0.70;;;;;;;8.70;100.00;95578.47;5074137;28;20048;-78
2022/12/23 07:23:44;;;;;;;2.10;0.90;;;;;;;8.75;100.00;95578.28;5074335;28;20052;-77
2022/12/23 07:26:11;;;;;;;1.48;0.70;;;;;;;8.79;100.00;95584.66;5073712;28;20419;-77
2022/12/23 07:28:38;;;;;;;1.15;0.70;;;;;;;8.80;100.00;95581.63;5073759;28;20045;-77
2022/12/23 07:31:05;;;;;;;0.52;0.45;;;;;;;8.80;100.00;95581.63;5073246;28;20052;-78
2022/12/23 07:33:32;;;;;;;1.20;0.80;;;;;;;8.84;100.00;95581.78;5072793;28;20064;-78
2022/12/23 07:35:58;;;;;;;1.05;0.70;;;;;;;8.85;100.00;95589.59;5073304;28;20041;-77
2022/12/23 07:38:25;;;;;;;2.00;0.82;;;;;;;8.89;100.00;95584.31;5072364;28;20414;-78
2022/12/23 07:40:51;;;;;;;1.25;0.70;;;;;;;8.90;100.00;95596.75;5072785;28;20048;-78
2022/12/23 07:43:18;;;;;;;0.88;0.70;;;;;;;8.96;100.00;95594.66;5072833;28;20516;-78
2022/12/23 07:45:46;;;;;;;2.47;0.75;;;;;;;8.96;100.00;95600.88;5073728;28;20052;-77
2022/12/23 07:48:12;;;;;;;0.90;0.60;;;;;;;9.00;100.00;95601.81;5073594;28;20044;-79
2022/12/23 07:50:39;;;;;;;1.77;0.70;;;;;;;8.99;100.00;95611.09;5073128;28;20532;-77
2022/12/23 07:53:05;;;;;;;2.00;0.95;;;;;;;8.98;100.00;95601.38;5072855;28;20052;-78
2022/12/23 07:55:32;;;;;;;1.40;0.70;;;;;;;8.98;100.00;95600.53;5072980;28;20495;-77
2022/12/23 07:57:58;;;;;;;5.53;2.70;;;;;;;8.95;100.00;95599.28;5073138;28;20518;-78
2022/12/23 08:00:25;;;;;;;1.33;1.23;;;;;;;8.99;100.00;95608.38;5073343;28;20044;-78
2022/12/23 08:02:53;;;;;;;2.05;0.80;;;;;;;9.02;100.00;95599.56;5072257;28;20037;-78
2022/12/23 08:05:19;;;;;;;1.05;0.73;;;;;;;9.13;100.00;95600.00;5071424;28;20044;-77
2022/12/23 08:07:48;;;;;;;2.10;0.90;;;;;;;9.20;100.00;95597.59;5071955;28;20048;-78
2022/12/23 08:10:15;;;;;;;2.63;0.85;;;;;;;9.24;100.00;95605.84;5071974;28;20052;-77
2022/12/23 08:12:41;;;;;;;1.27;0.68;;;;;;;9.30;100.00;95610.00;5071865;28;20561;-77
2022/12/23 08:15:09;;;;;;;3.53;0.90;;;;;;;9.30;100.00;95604.56;5072018;28;20514;-78
2022/12/23 08:17:35;;;;;;;1.10;0.80;;;;;;;9.19;100.00;95608.75;5071829;28;20059;-77
2022/12/23 08:20:03;;;;;;;7.32;0.80;;;;;;;9.15;100.00;95614.88;5070261;28;20044;-78
2022/12/23 08:22:31;;;;;;;2.10;1.05;;;;;;;9.14;100.00;95618.72;5070950;28;20511;-78
2022/12/23 08:24:58;;;;;;;1.58;0.90;;;;;;;9.19;100.00;95614.19;5071532;28;20041;-78
2022/12/23 08:27:26;;;;;;;1.50;0.77;;;;;;;9.24;100.00;95616.72;5071151;28;20094;-77
2022/12/23 08:29:53;;;;;;;2.80;0.90;;;;;;;9.25;100.00;95612.91;5063244;28;20045;-77
2022/12/23 08:32:19;;;;;;;1.52;0.90;;;;;;;9.28;100.00;95607.59;5070964;28;20044;-77
2022/12/23 08:34:46;;;;;;;1.83;1.02;;;;;;;9.31;100.00;95612.38;5071276;28;20071;-77
2022/12/23 08:37:14;;;;;;;2.65;0.95;;;;;;;9.36;100.00;95606.78;5070700;28;20404;-77
2022/12/23 08:39:41;;;;;;;1.50;0.90;;;;;;;9.37;100.00;95602.13;5070842;28;20059;-78
2022/12/23 08:42:07;;;;;;;3.28;1.00;;;;;;;9.37;100.00;95608.34;5070203;28;20041;-77
2022/12/23 08:44:34;;;;;;;1.70;0.90;;;;;;;9.39;100.00;95599.88;5071705;28;20045;-77
2022/12/23 08:47:00;;;;;;;8.15;1.30;;;;;;;9.39;100.00;95603.38;5071158;28;20063;-78
2022/12/23 08:49:27;;;;;;;2.35;0.90;;;;;;;9.40;100.00;95604.19;5071060;28;20037;-77
2022/12/23 08:51:53;;;;;;;4.97;1.08;;;;;;;9.42;100.00;95601.94;5063243;28;20047;-77
2022/12/23 08:54:22;;;;;;;3.90;1.20;;;;;;;9.41;100.00;95601.16;5070805;28;20045;-78
2022/12/23 08:56:49;;;;;;;3.03;0.95;;;;;;;9.46;100.00;95610.25;5070736;28;20413;-78
2022/12/23 08:59:17;;;;;;;4.60;1.05;;;;;;;9.52;100.00;95612.44;5071455;28;20051;-77
2022/12/23 09:01:43;;;;;;;1.38;0.70;;;;;;;9.56;100.00;95615.31;5070945;28;20052;-78
2022/12/23 09:04:10;;;;;;;1.33;0.73;;;;;;;9.57;100.00;95620.41;5071902;28;20044;-77
2022/12/23 09:06:40;;;;;;;1.10;0.60;;;;;;;9.53;100.00;95614.03;5072233;28;20124;-77
2022/12/23 09:09:07;;;;;;;1.38;0.52;;;;;;;9.55;100.00;95630.81;5071728;28;20066;-78
2022/12/23 09:11:36;;;;;;;1.98;0.60;;;;;;;9.57;100.00;95636.69;5073649;28;20071;-78
2022/12/23 09:14:03;;;;;;;1.05;0.70;;;;;;;9.62;100.00;95639.22;5070987;28;20613;-77
2022/12/23 09:16:30;;;;;;;1.40;0.60;;;;;;;9.69;100.00;95655.00;5074002;28;20044;-76
2022/12/23 09:18:57;;;;;;;2.85;1.65;;;;;;;9.65;100.00;95649.44;5074984;28;20049;-77
2022/12/23 09:21:23;;;;;;;1.35;1.20;;;;;;;9.67;100.00;95651.84;5075012;28;20044;-77
2022/12/23 09:23:50;;;;;;;1.23;0.70;;;;;;;9.71;100.00;95651.97;5075128;28;20048;-78
2022/12/23 09:26:19;;;;;;;1.73;0.85;;;;;;;9.76;100.00;95662.66;5075146;28;20040;-77
2022/12/23 09:28:47;;;;;;;1.08;0.70;;;;;;;9.75;100.00;95648.25;5075986;28;20055;-77
2022/12/23 09:31:14;;;;;;;2.38;1.25;;;;;;;9.79;100.00;95648.41;5076141;28;20044;-77
2022/12/23 09:33:40;;;;;;;2.92;1.23;;;;;;;9.87;100.00;95640.19;5075511;28;20059;-77
2022/12/23 09:36:07;;;;;;;3.05;0.88;;;;;;;9.89;100.00;95639.84;5076289;28;20053;-78
2022/12/23 09:38:34;;;;;;;2.72;1.02;;;;;;;9.92;100.00;95631.84;5076950;28;20071;-77
2022/12/23 09:41:03;;;;;;;3.33;1.45;;;;;;;9.92;100.00;95634.56;5078962;28;20040;-77
2022/12/23 09:43:43;;;;;;;4.88;1.25;;;;;;;9.93;100.00;95632.63;5077729;28;20491;-77
2022/12/23 09:46:16;;;;;;;1.80;1.30;;;;;;;9.88;100.00;95628.19;5078085;28;20052;-78
2022/12/23 09:48:47;;;;;;;;;;;;;;;9.87;100.00;95639.41;5073586;28;20056;-78
2022/12/23 09:51:15;;;;;;;2.35;1.40;;;;;;;9.92;100.00;95641.94;5070769;28;19920;-77
2022/12/23 09:53:52;;;;;;;2.22;0.88;;;;;;;9.91;100.00;95640.31;5073353;28;20051;-77
2022/12/23 09:56:25;;;;;;;2.97;0.80;;;;;;;9.95;100.00;95646.69;5077813;28;20044;-77
2022/12/23 09:59:02;;;;;;;3.03;0.75;;;;;;;9.99;100.00;95636.75;5075575;28;20047;-78
2022/12/23 10:01:34;;;;;;;2.05;0.93;;;;;;;10.15;100.00;95635.03;5071388;28;20053;-77
2022/12/23 10:04:34;;;;;;;1.13;0.57;;;;;;;10.27;100.00;95630.78;5072560;28;20115;-78
2022/12/23 10:07:17;;;;;;;1.05;0.47;;;;;;;10.36;100.00;95634.25;5068434;28;20071;-78
2022/12/23 10:09:47;;;;;;;0.50;0.43;;;;;;;10.50;100.00;95648.38;5072857;28;20048;-78
2022/12/23 10:12:23;;;;;;;0.40;0.40;;;;;;;10.63;100.00;95633.66;5072559;28;20044;-78
2022/12/23 10:14:52;;;;;;;0.35;0.30;;;;;;;10.55;100.00;95631.81;5072620;28;20056;-77
2022/12/23 10:17:28;;;;;;;2.28;0.60;;;;;;;10.56;100.00;95633.41;5072603;28;20037;-78
2022/12/23 10:20:00;;;;;;;1.65;0.40;;;;;;;10.53;100.00;95633.28;5065418;28;20036;-78
2022/12/23 10:22:34;;;;;;;1.75;0.47;;;;;;;10.52;100.00;95632.47;5072122;28;20063;-78
2022/12/23 10:25:03;;;;;;;1.10;0.55;;;;;;;10.54;100.00;95630.22;5074238;28;20044;-79
2022/12/23 10:27:34;;;;;;;0.80;0.60;;;;;;;10.69;100.00;95624.13;5078122;28;20045;-78
2022/12/23 10:30:02;;;;;;;1.38;0.57;;;;;;;10.61;100.00;95619.59;5078494;28;20041;-78
2022/12/23 10:32:49;;;;;;;3.28;0.90;;;;;;;10.65;100.00;95620.53;5077951;28;20040;-78
2022/12/23 10:35:26;;;;;;;1.20;0.60;;;;;;;10.69;100.00;95609.72;5078410;28;20047;-79
2022/12/23 10:37:57;;;;;;;1.38;0.60;;;;;;;10.66;100.00;95611.22;5077426;28;20131;-79
2022/12/23 10:40:27;;;;;;;2.15;0.60;;;;;;;10.66;100.00;95611.22;5076436;28;20489;-78
2022/12/23 10:43:04;;;;;;;0.85;0.70;;;;;;;10.77;100.00;95605.34;5075925;28;20492;-78
2022/12/23 10:45:45;;;;;;;0.75;0.50;;;;;;;10.93;100.00;95609.00;5076793;28;20058;-78
2022/12/23 10:48:27;;;;;;;0.98;0.88;;;;;;;10.94;100.00;95605.13;5074669;28;20040;-78
2022/12/23 10:51:01;;;;;;;4.18;0.77;;;;;;;11.02;100.00;95598.00;5065688;28;20442;-78
2022/12/23 10:53:33;;;;;;;3.03;1.27;;;;;;;10.97;100.00;95599.03;5074326;28;20040;-77
2022/12/23 10:56:01;;;;;;;2.45;1.15;;;;;;;10.91;100.00;95600.34;5065933;28;20412;-77
2022/12/23 10:58:28;;;;;;;2.08;1.00;;;;;;;10.86;100.00;95595.94;5073453;28;20056;-78
2022/12/23 11:00:55;;;;;;;2.97;1.25;;;;;;;10.90;100.00;95596.03;5073400;28;20071;-77
2022/12/23 11:03:28;;;;;;;2.67;1.05;;;;;;;10.86;100.00;95600.59;5072873;28;20048;-77
2022/12/23 11:05:57;;;;;;;1.98;1.00;;;;;;;10.82;100.00;95596.94;5065089;28;20045;-76
2022/12/23 11:08:26;;;;;;;2.45;1.13;;;;;;;10.83;100.00;95596.59;5072558;28;20123;-77
2022/12/23 11:10:54;;;;;;;2.45;1.17;;;;;;;10.82;100.00;95596.94;5072188;28;20500;-77
2022/12/23 11:13:26;;;;;;;3.03;1.50;;;;;;;10.77;100.00;95599.91;5071331;28;20405;-76
2022/12/23 11:15:52;;;;;;;0.57;0.50;;;;;;;10.75;100.00;95591.25;5063978;28;20045;-77
2022/12/23 11:18:21;;;;;;;1.95;0.60;;;;;;;10.74;100.00;95589.66;5071520;28;20287;-78
2022/12/23 11:21:04;;;;;;;4.35;2.35;;;;;;;10.79;100.00;95592.97;5072020;28;20048;-77
2022/12/23 11:23:32;;;;;;;;;;;;;;;10.88;100.00;95595.59;5072220;28;20040;-77
2022/12/23 11:26:04;;;;;;;3.60;1.27;;;;;;;10.82;100.00;95592.31;5071974;28;19958;-77
2022/12/23 11:28:33;;;;;;;2.97;1.53;;;;;;;10.81;100.00;95589.91;5071446;28;20487;-77
2022/12/23 11:31:04;;;;;;;3.47;1.27;;;;;;;10.88;100.00;95593.66;5072182;28;20040;-78
2022/12/23 11:33:34;;;;;;;3.05;1.50;;;;;;;10.89;100.00;95591.75;5071305;28;20046;-77
2022/12/23 11:36:07;;;;;;;2.10;1.17;;;;;;;10.89;100.00;95587.09;5072368;28;20447;-77
2022/12/23 11:38:35;;;;;;;1.42;0.82;;;;;;;10.83;100.00;95576.75;5070921;28;20713;-77
2022/12/23 11:41:03;;;;;;;1.65;1.13;;;;;;;10.83;100.00;95587.66;5071538;28;20496;-79
2022/12/23 11:43:32;;;;;;;3.40;1.38;;;;;;;10.71;100.00;95586.50;5071567;28;20436;-79
2022/12/23 11:46:17;;;;;;;5.03;1.40;;;;;;;10.69;100.00;95582.50;5071104;28;20450;-76
2022/12/23 11:48:43;;;;;;;2.25;1.15;;;;;;;10.61;100.00;95581.47;5071516;28;20051;-79
2022/12/23 11:51:11;;;;;;;2.17;1.15;;;;;;;10.43;100.00;95590.94;5071395;28;20037;-80
2022/12/23 11:53:45;;;;;;;5.88;1.88;;;;;;;10.32;100.00;95589.78;5072319;28;20040;-76
2022/12/23 11:56:14;;;;;;;2.40;1.20;;;;;;;10.23;100.00;95576.19;5071307;28;20098;-80
2022/12/23 11:58:47;;;;;;;2.63;1.63;;;;;;;10.10;100.00;95582.75;5072404;28;20056;-77
2022/12/23 12:01:19;;;;;;;2.25;1.30;;;;;;;10.02;100.00;95573.50;5074550;28;20032;-77
2022/12/23 12:03:50;;;;;;;2.90;1.40;;;;;;;10.01;100.00;95558.31;5075434;28;20055;-77
2022/12/23 12:06:19;;;;;;;4.95;1.50;;;;;;;9.98;100.00;95559.00;5073620;28;20055;-77
2022/12/23 12:08:49;;;;;;;4.97;1.95;;;;;;;9.95;100.00;95562.38;5072543;28;20052;-76
2022/12/23 12:11:18;;;;;;;3.88;1.90;;;;;;;9.90;100.00;95554.44;5072488;28;20090;-78
2022/12/23 12:13:48;;;;;;;3.72;1.90;;;;;;;9.86;100.00;95550.78;5073550;28;20037;-77